»·PEaware :: SWA2202 KSAN-KSMF

SWA2202 :: KSAN-KSMF

FLIGHT INFORMATION

Flight Status: Arrived
Operator:
Southwest Airlines
More flights by this operator :: More flights under this callsign
Pilot: Daniel W. (24238)
Aircraft: BOEING 737-700
(B737)
More flights by this aircraft type
Origin: KSAN San Diego Intl-Lindbergh
United States
Destination: KSMF Sacramento Intl
United States
More flights between these airports :: More routes between these airports
Route: PADRZ2 EHF NURAY SUUTR2
File this flight plan on PilotEdge
Remarks: PBN / A1D1O1S2T1 NAV / RNVD1E1A1 RNP10 DOF / 190710 REG / N221WN EET / KZOA0034 CODE / A1E6B9 PER / C
Altitude:
(Current/Filed)
40,000ft
Speed:
(Current/Filed)
443kts
Departed: 10-Jul-19 11:44 AM
Arrived: 10-Jul-19 12:51 PM
Distance/Time
Traveled:
417nm/1:06
Distance/Time
To Go:
Arrived

Flight Plot

Page will automatically refresh every two minutes.

Flight plan parsing failed; only flown route is shown


Map Options




Map Legend


Flown Route
Filed Route
Departure Airport
Arrival Airport
Navaid (VOR, NDB)
Fix

Horizontal Profiles

Position Reports

Time Latitude Longitude Heading Altitude Ground
Speed
10-Jul-19 10:48 32.732861 -117.195440 275 23ft 0kts
10-Jul-19 10:49 32.732861 -117.195440 275 23ft 0kts
10-Jul-19 10:50 32.732861 -117.195440 275 23ft 0kts
10-Jul-19 10:51 32.732861 -117.195440 275 23ft 0kts
10-Jul-19 10:52 32.732861 -117.195440 275 23ft 0kts
10-Jul-19 10:53 32.732861 -117.195440 275 23ft 0kts
10-Jul-19 10:54 32.732861 -117.195440 275 23ft 0kts
10-Jul-19 10:55 32.732861 -117.195440 275 23ft 0kts
10-Jul-19 10:56 32.732861 -117.195440 275 23ft 0kts
10-Jul-19 10:57 32.732861 -117.195440 275 23ft 0kts
10-Jul-19 10:58 32.732861 -117.195440 275 23ft 0kts
10-Jul-19 10:59 32.732861 -117.195440 275 23ft 0kts
10-Jul-19 11:00 32.732861 -117.195440 275 23ft 0kts
10-Jul-19 11:01 32.732861 -117.195440 275 23ft 0kts
10-Jul-19 11:02 32.732861 -117.195440 275 23ft 0kts
10-Jul-19 11:03 32.732861 -117.195440 275 23ft 0kts
10-Jul-19 11:04 32.732861 -117.195440 275 23ft 0kts
10-Jul-19 11:05 32.732861 -117.195440 275 23ft 0kts
10-Jul-19 11:06 32.732861 -117.195440 275 23ft 0kts
10-Jul-19 11:07 32.732861 -117.195440 275 23ft 0kts
10-Jul-19 11:08 32.732861 -117.195440 275 23ft 0kts
10-Jul-19 11:09 32.732861 -117.195440 275 23ft 0kts
10-Jul-19 11:10 32.732861 -117.195440 275 23ft 0kts
10-Jul-19 11:11 32.732861 -117.195440 275 23ft 0kts
10-Jul-19 11:12 32.732861 -117.195440 275 23ft 0kts
10-Jul-19 11:13 32.732861 -117.195440 275 23ft 0kts
10-Jul-19 11:14 32.732861 -117.195440 275 23ft 0kts
10-Jul-19 11:15 32.732861 -117.195440 275 23ft 0kts
10-Jul-19 11:16 32.732861 -117.195440 275 23ft 0kts
10-Jul-19 11:17 32.732861 -117.195440 275 23ft 0kts
10-Jul-19 11:18 32.732861 -117.195440 275 23ft 0kts
10-Jul-19 11:19 32.732861 -117.195440 275 23ft 0kts
10-Jul-19 11:20 32.732861 -117.195440 275 23ft 0kts
10-Jul-19 11:21 32.732861 -117.195440 275 23ft 0kts
10-Jul-19 11:22 32.732861 -117.195440 275 23ft 0kts
10-Jul-19 11:23 32.732861 -117.195440 275 23ft 0kts
10-Jul-19 11:24 32.732861 -117.195440 275 23ft 0kts
10-Jul-19 11:25 32.732861 -117.195440 275 23ft 0kts
10-Jul-19 11:26 32.732861 -117.195440 275 23ft 0kts
10-Jul-19 11:27 32.732861 -117.195440 275 23ft 0kts
10-Jul-19 11:28 32.732861 -117.195440 275 23ft 0kts
10-Jul-19 11:29 32.732861 -117.195440 275 23ft 0kts
10-Jul-19 11:30 32.732861 -117.195440 275 23ft 0kts
10-Jul-19 11:31 32.732861 -117.195440 275 23ft 0kts
10-Jul-19 11:32 32.732861 -117.195440 275 23ft 0kts
10-Jul-19 11:33 32.732861 -117.195440 275 23ft 0kts
10-Jul-19 11:34 32.732858 -117.195400 275 23ft 1kts
10-Jul-19 11:35 32.732654 -117.194709 327 23ft 2kts
10-Jul-19 11:36 32.732462 -117.194699 28 23ft 0kts
10-Jul-19 11:37 32.732462 -117.194699 28 23ft 0kts
10-Jul-19 11:38 32.733396 -117.194040 58 23ft 13kts
10-Jul-19 11:39 32.732089 -117.187892 105 23ft 24kts
10-Jul-19 11:40 32.730115 -117.179719 106 23ft 22kts
10-Jul-19 11:41 32.729486 -117.176899 71 23ft 0kts
10-Jul-19 11:42 32.730169 -117.175708 287 23ft 9kts
10-Jul-19 11:43 32.738447 -117.210038 286 808ft 164kts
10-Jul-19 11:44 32.768406 -117.266698 305 2421ft 249kts
10-Jul-19 11:45 32.812058 -117.337872 307 5401ft 277kts
10-Jul-19 11:46 32.860725 -117.413009 306 8616ft 294kts
10-Jul-19 11:47 32.912640 -117.493725 306 11397ft 334kts
10-Jul-19 11:48 32.973531 -117.588433 306 13971ft 374kts
10-Jul-19 11:49 33.037723 -117.688861 306 14991ft 381kts
10-Jul-19 11:50 33.111513 -117.778731 320 14999ft 381kts
10-Jul-19 11:51 33.194040 -117.862060 319 17677ft 396kts
10-Jul-19 11:52 33.281047 -117.947058 320 20519ft 411kts
10-Jul-19 11:53 33.371139 -118.034837 320 23079ft 425kts
10-Jul-19 11:54 33.464047 -118.125937 320 25272ft 438kts
10-Jul-19 11:55 33.560180 -118.219466 324 27239ft 451kts
10-Jul-19 11:56 33.672595 -118.289518 336 28922ft 463kts
10-Jul-19 11:57 33.791341 -118.353898 338 30476ft 472kts
10-Jul-19 11:58 33.913520 -118.414989 337 32118ft 474kts
10-Jul-19 11:59 34.037525 -118.464644 351 33931ft 467kts
10-Jul-19 12:00 34.165475 -118.484936 354 35636ft 459kts
10-Jul-19 12:01 34.291219 -118.504260 354 37142ft 453kts
10-Jul-19 12:02 34.415383 -118.523384 354 38445ft 447kts
10-Jul-19 12:03 34.538425 -118.542410 353 39518ft 444kts
10-Jul-19 12:04 34.660859 -118.561422 353 40237ft 446kts
10-Jul-19 12:05 34.783430 -118.580482 353 40269ft 443kts
10-Jul-19 12:06 34.905385 -118.599566 353 40265ft 443kts
10-Jul-19 12:07 35.024564 -118.634140 330 40255ft 446kts
10-Jul-19 12:08 35.122451 -118.727569 321 40244ft 447kts
10-Jul-19 12:09 35.217618 -118.824615 321 40203ft 447kts
10-Jul-19 12:10 35.313794 -118.922210 321 40157ft 447kts
10-Jul-19 12:11 35.409188 -119.019869 321 40126ft 447kts
10-Jul-19 12:12 35.509160 -119.108813 335 40120ft 445kts
10-Jul-19 12:13 35.622269 -119.170937 337 40115ft 444kts
10-Jul-19 12:14 35.735403 -119.232111 337 40110ft 445kts
10-Jul-19 12:15 35.849142 -119.293511 337 40112ft 445kts
10-Jul-19 12:16 35.962601 -119.354869 337 40119ft 445kts
10-Jul-19 12:17 36.076046 -119.416482 336 40123ft 447kts
10-Jul-19 12:18 36.190059 -119.478617 336 40120ft 447kts
10-Jul-19 12:19 36.303578 -119.540736 336 40119ft 447kts
10-Jul-19 12:20 36.417633 -119.603144 336 40120ft 446kts
10-Jul-19 12:21 36.530856 -119.665581 336 40123ft 446kts
10-Jul-19 12:22 36.641275 -119.736322 328 40120ft 446kts
10-Jul-19 12:23 36.746330 -119.819252 328 40119ft 447kts
10-Jul-19 12:24 36.851368 -119.902112 327 40122ft 447kts
10-Jul-19 12:25 36.956336 -119.984739 328 38046ft 446kts
10-Jul-19 12:26 37.061758 -120.067879 327 35059ft 450kts
10-Jul-19 12:27 37.168490 -120.152694 326 31820ft 456kts
10-Jul-19 12:28 37.273814 -120.236741 326 29439ft 441kts
10-Jul-19 12:29 37.377341 -120.319441 326 26789ft 437kts
10-Jul-19 12:31 37.478429 -120.401510 322 24430ft 423kts
10-Jul-19 12:32 37.567004 -120.491071 319 22419ft 401kts
10-Jul-19 12:33 37.652893 -120.577324 319 20381ft 387kts
10-Jul-19 12:34 37.736028 -120.660866 319 19149ft 383kts
10-Jul-19 12:35 37.818799 -120.744486 319 17526ft 378kts
10-Jul-19 12:36 37.900184 -120.826613 319 15971ft 366kts
10-Jul-19 12:37 37.978989 -120.906780 319 14486ft 360kts
10-Jul-19 12:38 38.056176 -120.985546 318 13019ft 354kts
10-Jul-19 12:39 38.120875 -121.071415 307 11613ft 311kts
10-Jul-19 12:40 38.174879 -121.152185 308 10405ft 291kts
10-Jul-19 12:41 38.227816 -121.229076 312 9226ft 286kts
10-Jul-19 12:42 38.284105 -121.299471 314 8059ft 281kts
10-Jul-19 12:43 38.339207 -121.368568 314 6912ft 274kts
10-Jul-19 12:44 38.392685 -121.436400 313 5804ft 269kts
10-Jul-19 12:45 38.444745 -121.502767 313 4720ft 255kts
10-Jul-19 12:46 38.492795 -121.564118 313 3720ft 233kts
10-Jul-19 12:47 38.551578 -121.583497 0 2588ft 216kts
10-Jul-19 12:47 38.598271 -121.582005 1 1845ft 173kts
10-Jul-19 12:49 38.646243 -121.580846 358 748ft 140kts
10-Jul-19 12:50 38.687292 -121.580382 358 39ft 146kts
10-Jul-19 12:50 38.702810 -121.580125 0 36ft 30kts
10-Jul-19 12:52 38.706699 -121.582574 210 36ft 16kts
10-Jul-19 12:53 38.699915 -121.582802 181 36ft 30kts
10-Jul-19 12:53 38.696888 -121.585022 270 36ft 21kts
10-Jul-19 12:54 38.696963 -121.592262 271 36ft 20kts
10-Jul-19 12:55 38.696499 -121.595989 179 36ft 13kts
10-Jul-19 12:56 38.694973 -121.593537 13 36ft 5kts
10-Jul-19 12:57 38.695155 -121.593480 13 36ft 0kts
10-Jul-19 12:58 38.695155 -121.593480 13 36ft 0kts
10-Jul-19 12:59 38.695155 -121.593480 13 36ft 0kts
10-Jul-19 13:00 38.695155 -121.593480 13 36ft 0kts
10-Jul-19 13:01 38.695155 -121.593480 13 36ft 0kts
10-Jul-19 13:02 38.695155 -121.593480 13 36ft 0kts
10-Jul-19 13:03 38.695155 -121.593480 13 36ft 0kts
10-Jul-19 13:04 38.695155 -121.593480 13 36ft 0kts

Navigation Log

Ident Type
Flight plan parsing failed, navigation log unavailable